KPTN

Harry P Williams Memorial Airport

Patterson, Louisiana, USA
METAR KPTN 162356Z AUTO 00000KT 10SM OVC018 11/08 A3029 RMK AO2 SLP258 T01110083 10117 20106 53007
Observed Flight Rules
Dec-16 @ 23:56 UTC (30 minutes ago) Marginal Visual Flight Rules
Visibility Clouds
10 miles
  • Overcast at 1,800' AGL
Temperatures Readings
Current 11°C / 52°F
Dewpoint 8°C / 46°F
Humidity 82%
Altimeter 30.29" Hg
Pressure 1025.8 hPa
Elevation 3
METAR KPTN 162356Z AUTO 00000KT 10SM OVC018 11/08 A3029 RMK AO2 SLP258 T01110083 10117 20106 53007
Observed Flight Rules
Dec-16 @ 23:56 UTC
(30 minutes ago)
MVFR
Clouds
  • Overcast at 1,800' AGL
Temperature Dewpoint
11°C / 52°F 8°C / 46°F
Humidity Altimeter Pressure
82% 30.29" Hg 1025.8 hPa